sensor_id;sensor_type;location;lat;lon;timestamp;pressure;altitude;pressure_sealevel;temperature
73937;BMP180;59249;59.736;30.568;2023-12-20T00:01:38;98101.00;;;1.10
73937;BMP180;59249;59.736;30.568;2023-12-20T00:04:08;98110.00;;;1.10
73937;BMP180;59249;59.736;30.568;2023-12-20T00:06:37;98109.00;;;1.00
73937;BMP180;59249;59.736;30.568;2023-12-20T00:09:07;98127.00;;;1.10
73937;BMP180;59249;59.736;30.568;2023-12-20T00:11:36;98099.00;;;1.00
73937;BMP180;59249;59.736;30.568;2023-12-20T00:14:05;98115.00;;;1.00
73937;BMP180;59249;59.736;30.568;2023-12-20T00:16:34;98101.00;;;1.00
73937;BMP180;59249;59.736;30.568;2023-12-20T00:19:03;98095.00;;;1.00
73937;BMP180;59249;59.736;30.568;2023-12-20T00:21:32;98090.00;;;1.00
73937;BMP180;59249;59.736;30.568;2023-12-20T00:24:01;98073.00;;;1.00
73937;BMP180;59249;59.736;30.568;2023-12-20T00:26:32;98085.00;;;1.00
73937;BMP180;59249;59.736;30.568;2023-12-20T00:29:01;98104.00;;;1.00
73937;BMP180;59249;59.736;30.568;2023-12-20T00:31:30;98055.00;;;1.10
73937;BMP180;59249;59.736;30.568;2023-12-20T00:33:59;98095.00;;;1.00
73937;BMP180;59249;59.736;30.568;2023-12-20T00:36:28;98085.00;;;1.10
73937;BMP180;59249;59.736;30.568;2023-12-20T00:38:57;98092.00;;;1.10
73937;BMP180;59249;59.736;30.568;2023-12-20T00:41:26;98086.00;;;1.00
73937;BMP180;59249;59.736;30.568;2023-12-20T00:43:57;98099.00;;;1.00
73937;BMP180;59249;59.736;30.568;2023-12-20T00:46:25;98100.00;;;1.00
73937;BMP180;59249;59.736;30.568;2023-12-20T00:48:54;98082.00;;;1.00
73937;BMP180;59249;59.736;30.568;2023-12-20T00:51:23;98092.00;;;1.10
73937;BMP180;59249;59.736;30.568;2023-12-20T00:53:52;98097.00;;;1.00
73937;BMP180;59249;59.736;30.568;2023-12-20T00:56:22;98104.00;;;1.00
73937;BMP180;59249;59.736;30.568;2023-12-20T00:58:51;98088.00;;;1.10
73937;BMP180;59249;59.736;30.568;2023-12-20T01:01:21;98094.00;;;1.00
73937;BMP180;59249;59.736;30.568;2023-12-20T01:03:50;98068.00;;;1.00
73937;BMP180;59249;59.736;30.568;2023-12-20T01:06:20;98088.00;;;1.00
73937;BMP180;59249;59.736;30.568;2023-12-20T01:08:49;98088.00;;;1.00
73937;BMP180;59249;59.736;30.568;2023-12-20T01:11:18;98087.00;;;0.90
73937;BMP180;59249;59.736;30.568;2023-12-20T01:13:47;98066.00;;;1.00
73937;BMP180;59249;59.736;30.568;2023-12-20T01:16:15;98052.00;;;0.90
73937;BMP180;59249;59.736;30.568;2023-12-20T01:18:46;98055.00;;;0.90
73937;BMP180;59249;59.736;30.568;2023-12-20T01:21:15;98063.00;;;1.00
73937;BMP180;59249;59.736;30.568;2023-12-20T01:23:44;97999.00;;;1.00
73937;BMP180;59249;59.736;30.568;2023-12-20T01:26:14;98047.00;;;1.00
73937;BMP180;59249;59.736;30.568;2023-12-20T01:28:43;98045.00;;;1.00
73937;BMP180;59249;59.736;30.568;2023-12-20T01:31:12;98050.00;;;1.00
73937;BMP180;59249;59.736;30.568;2023-12-20T01:33:42;98051.00;;;1.00
73937;BMP180;59249;59.736;30.568;2023-12-20T01:36:12;98038.00;;;1.00
73937;BMP180;59249;59.736;30.568;2023-12-20T01:38:41;98050.00;;;1.00
73937;BMP180;59249;59.736;30.568;2023-12-20T01:41:10;98042.00;;;1.00
73937;BMP180;59249;59.736;30.568;2023-12-20T01:43:39;98070.00;;;1.00
73937;BMP180;59249;59.736;30.568;2023-12-20T01:46:18;98050.00;;;1.00
73937;BMP180;59249;59.736;30.568;2023-12-20T01:48:48;98048.00;;;1.00
73937;BMP180;59249;59.736;30.568;2023-12-20T01:51:19;98051.00;;;1.00
73937;BMP180;59249;59.736;30.568;2023-12-20T01:53:49;98056.00;;;1.00
73937;BMP180;59249;59.736;30.568;2023-12-20T01:56:18;98061.00;;;1.00
73937;BMP180;59249;59.736;30.568;2023-12-20T01:58:48;98058.00;;;0.90
73937;BMP180;59249;59.736;30.568;2023-12-20T02:01:17;98034.00;;;0.90
73937;BMP180;59249;59.736;30.568;2023-12-20T02:03:47;98031.00;;;0.90
73937;BMP180;59249;59.736;30.568;2023-12-20T02:06:17;98028.00;;;0.90
73937;BMP180;59249;59.736;30.568;2023-12-20T02:08:50;98038.00;;;0.90
73937;BMP180;59249;59.736;30.568;2023-12-20T02:11:19;98040.00;;;0.90
73937;BMP180;59249;59.736;30.568;2023-12-20T02:13:49;98025.00;;;0.90
73937;BMP180;59249;59.736;30.568;2023-12-20T02:16:18;98040.00;;;0.90
73937;BMP180;59249;59.736;30.568;2023-12-20T02:18:48;98041.00;;;0.90
73937;BMP180;59249;59.736;30.568;2023-12-20T02:21:24;98049.00;;;1.00
73937;BMP180;59249;59.736;30.568;2023-12-20T02:23:53;98013.00;;;0.90
73937;BMP180;59249;59.736;30.568;2023-12-20T02:26:22;98023.00;;;1.00
73937;BMP180;59249;59.736;30.568;2023-12-20T02:28:52;98042.00;;;0.90
73937;BMP180;59249;59.736;30.568;2023-12-20T02:31:21;98018.00;;;1.00
73937;BMP180;59249;59.736;30.568;2023-12-20T02:33:50;97971.00;;;1.00
73937;BMP180;59249;59.736;30.568;2023-12-20T02:36:18;98016.00;;;1.00
73937;BMP180;59249;59.736;30.568;2023-12-20T02:38:49;98026.00;;;1.00
73937;BMP180;59249;59.736;30.568;2023-12-20T02:41:18;98027.00;;;1.00
73937;BMP180;59249;59.736;30.568;2023-12-20T02:43:47;98025.00;;;1.00
73937;BMP180;59249;59.736;30.568;2023-12-20T02:46:17;97986.00;;;1.10
73937;BMP180;59249;59.736;30.568;2023-12-20T02:48:46;98033.00;;;1.00
73937;BMP180;59249;59.736;30.568;2023-12-20T02:51:16;98024.00;;;1.00
73937;BMP180;59249;59.736;30.568;2023-12-20T02:53:45;98015.00;;;0.90
73937;BMP180;59249;59.736;30.568;2023-12-20T02:56:15;98018.00;;;0.90
73937;BMP180;59249;59.736;30.568;2023-12-20T02:58:44;98034.00;;;1.00
73937;BMP180;59249;59.736;30.568;2023-12-20T03:01:13;97999.00;;;1.00
73937;BMP180;59249;59.736;30.568;2023-12-20T03:03:42;98024.00;;;1.00
73937;BMP180;59249;59.736;30.568;2023-12-20T03:06:11;97980.00;;;1.10
73937;BMP180;59249;59.736;30.568;2023-12-20T03:08:40;98026.00;;;1.00
73937;BMP180;59249;59.736;30.568;2023-12-20T03:11:12;98027.00;;;1.00
73937;BMP180;59249;59.736;30.568;2023-12-20T03:13:42;98016.00;;;1.00
73937;BMP180;59249;59.736;30.568;2023-12-20T03:16:13;98047.00;;;1.20
73937;BMP180;59249;59.736;30.568;2023-12-20T03:18:43;98027.00;;;1.10
73937;BMP180;59249;59.736;30.568;2023-12-20T03:21:13;98036.00;;;1.10
73937;BMP180;59249;59.736;30.568;2023-12-20T03:23:41;98030.00;;;1.00
73937;BMP180;59249;59.736;30.568;2023-12-20T03:26:11;98023.00;;;1.10
73937;BMP180;59249;59.736;30.568;2023-12-20T03:28:41;98006.00;;;1.10
73937;BMP180;59249;59.736;30.568;2023-12-20T03:31:10;98008.00;;;1.10
73937;BMP180;59249;59.736;30.568;2023-12-20T03:33:40;97994.00;;;1.00
73937;BMP180;59249;59.736;30.568;2023-12-20T03:36:09;97987.00;;;1.00
73937;BMP180;59249;59.736;30.568;2023-12-20T03:38:38;98001.00;;;1.00
73937;BMP180;59249;59.736;30.568;2023-12-20T03:41:07;98001.00;;;1.00
73937;BMP180;59249;59.736;30.568;2023-12-20T03:43:36;97999.00;;;1.10
73937;BMP180;59249;59.736;30.568;2023-12-20T03:46:07;98017.00;;;1.00
73937;BMP180;59249;59.736;30.568;2023-12-20T03:48:37;98049.00;;;1.10
73937;BMP180;59249;59.736;30.568;2023-12-20T03:51:06;98039.00;;;1.10
73937;BMP180;59249;59.736;30.568;2023-12-20T03:53:35;98036.00;;;1.10
73937;BMP180;59249;59.736;30.568;2023-12-20T03:56:05;98069.00;;;1.20
73937;BMP180;59249;59.736;30.568;2023-12-20T03:58:34;97994.00;;;1.30
73937;BMP180;59249;59.736;30.568;2023-12-20T04:01:03;98027.00;;;1.30
73937;BMP180;59249;59.736;30.568;2023-12-20T04:03:39;97989.00;;;1.40
73937;BMP180;59249;59.736;30.568;2023-12-20T04:06:08;98035.00;;;1.30
73937;BMP180;59249;59.736;30.568;2023-12-20T04:08:37;98038.00;;;1.30
73937;BMP180;59249;59.736;30.568;2023-12-20T04:11:07;98053.00;;;1.30
73937;BMP180;59249;59.736;30.568;2023-12-20T04:13:36;98024.00;;;1.40
73937;BMP180;59249;59.736;30.568;2023-12-20T04:16:06;98042.00;;;1.40
73937;BMP180;59249;59.736;30.568;2023-12-20T04:18:35;98047.00;;;1.30
73937;BMP180;59249;59.736;30.568;2023-12-20T04:21:05;98055.00;;;1.40
73937;BMP180;59249;59.736;30.568;2023-12-20T04:23:34;98044.00;;;1.30
73937;BMP180;59249;59.736;30.568;2023-12-20T04:26:03;98032.00;;;1.30
73937;BMP180;59249;59.736;30.568;2023-12-20T04:28:32;98034.00;;;1.30
73937;BMP180;59249;59.736;30.568;2023-12-20T04:31:01;98024.00;;;1.40
73937;BMP180;59249;59.736;30.568;2023-12-20T04:33:31;98045.00;;;1.40
73937;BMP180;59249;59.736;30.568;2023-12-20T04:36:00;98039.00;;;1.40
73937;BMP180;59249;59.736;30.568;2023-12-20T04:38:30;98037.00;;;1.40
73937;BMP180;59249;59.736;30.568;2023-12-20T04:40:59;98051.00;;;1.50
73937;BMP180;59249;59.736;30.568;2023-12-20T04:43:29;98057.00;;;1.50
73937;BMP180;59249;59.736;30.568;2023-12-20T04:45:58;98038.00;;;1.50
73937;BMP180;59249;59.736;30.568;2023-12-20T04:48:27;98035.00;;;1.50
73937;BMP180;59249;59.736;30.568;2023-12-20T04:50:56;98034.00;;;1.60
73937;BMP180;59249;59.736;30.568;2023-12-20T04:53:25;98058.00;;;1.60
73937;BMP180;59249;59.736;30.568;2023-12-20T04:55:56;98031.00;;;1.50
73937;BMP180;59249;59.736;30.568;2023-12-20T04:58:25;98022.00;;;1.60
73937;BMP180;59249;59.736;30.568;2023-12-20T05:00:54;98038.00;;;1.50
73937;BMP180;59249;59.736;30.568;2023-12-20T05:03:23;97975.00;;;1.40
73937;BMP180;59249;59.736;30.568;2023-12-20T05:05:52;98051.00;;;1.40
73937;BMP180;59249;59.736;30.568;2023-12-20T05:08:21;98044.00;;;1.40
73937;BMP180;59249;59.736;30.568;2023-12-20T05:10:50;98054.00;;;1.30
73937;BMP180;59249;59.736;30.568;2023-12-20T05:13:20;98042.00;;;1.40
73937;BMP180;59249;59.736;30.568;2023-12-20T05:16:00;98055.00;;;1.30
73937;BMP180;59249;59.736;30.568;2023-12-20T05:18:29;97982.00;;;1.30
73937;BMP180;59249;59.736;30.568;2023-12-20T05:20:58;98044.00;;;1.30
73937;BMP180;59249;59.736;30.568;2023-12-20T05:23:27;98043.00;;;1.30
73937;BMP180;59249;59.736;30.568;2023-12-20T05:25:56;98065.00;;;1.30
73937;BMP180;59249;59.736;30.568;2023-12-20T05:28:27;98067.00;;;1.40
73937;BMP180;59249;59.736;30.568;2023-12-20T05:30:56;98067.00;;;1.40
73937;BMP180;59249;59.736;30.568;2023-12-20T05:33:25;98039.00;;;1.40
73937;BMP180;59249;59.736;30.568;2023-12-20T05:35:54;98075.00;;;1.60
73937;BMP180;59249;59.736;30.568;2023-12-20T05:38:23;97973.00;;;1.50
73937;BMP180;59249;59.736;30.568;2023-12-20T05:40:53;98091.00;;;1.50
73937;BMP180;59249;59.736;30.568;2023-12-20T05:43:22;98090.00;;;1.60
73937;BMP180;59249;59.736;30.568;2023-12-20T05:45:53;98089.00;;;1.70
73937;BMP180;59249;59.736;30.568;2023-12-20T05:48:22;98083.00;;;1.60
73937;BMP180;59249;59.736;30.568;2023-12-20T05:50:51;98114.00;;;1.60
73937;BMP180;59249;59.736;30.568;2023-12-20T05:53:20;98099.00;;;1.70
73937;BMP180;59249;59.736;30.568;2023-12-20T05:55:50;98097.00;;;1.60
73937;BMP180;59249;59.736;30.568;2023-12-20T05:58:19;98079.00;;;1.60
73937;BMP180;59249;59.736;30.568;2023-12-20T06:00:48;98067.00;;;1.60
73937;BMP180;59249;59.736;30.568;2023-12-20T06:03:18;98100.00;;;1.50
73937;BMP180;59249;59.736;30.568;2023-12-20T06:05:47;98078.00;;;1.40
73937;BMP180;59249;59.736;30.568;2023-12-20T06:08:18;98090.00;;;1.50
73937;BMP180;59249;59.736;30.568;2023-12-20T06:10:48;98077.00;;;1.40
73937;BMP180;59249;59.736;30.568;2023-12-20T06:13:17;98102.00;;;1.40
73937;BMP180;59249;59.736;30.568;2023-12-20T06:15:46;98076.00;;;1.30
73937;BMP180;59249;59.736;30.568;2023-12-20T06:18:15;98098.00;;;1.40
73937;BMP180;59249;59.736;30.568;2023-12-20T06:20:45;98097.00;;;1.40
73937;BMP180;59249;59.736;30.568;2023-12-20T06:23:14;98106.00;;;1.50
73937;BMP180;59249;59.736;30.568;2023-12-20T06:25:44;98021.00;;;1.50
73937;BMP180;59249;59.736;30.568;2023-12-20T06:28:13;98103.00;;;1.40
73937;BMP180;59249;59.736;30.568;2023-12-20T06:30:43;98077.00;;;1.50
73937;BMP180;59249;59.736;30.568;2023-12-20T06:33:13;98078.00;;;1.50
73937;BMP180;59249;59.736;30.568;2023-12-20T06:35:42;98100.00;;;1.50
73937;BMP180;59249;59.736;30.568;2023-12-20T06:38:12;98087.00;;;1.50
73937;BMP180;59249;59.736;30.568;2023-12-20T06:40:41;98069.00;;;1.50
73937;BMP180;59249;59.736;30.568;2023-12-20T06:43:11;98100.00;;;1.60
73937;BMP180;59249;59.736;30.568;2023-12-20T06:45:58;98094.00;;;1.50
73937;BMP180;59249;59.736;30.568;2023-12-20T06:48:28;98106.00;;;1.60
73937;BMP180;59249;59.736;30.568;2023-12-20T06:50:59;98110.00;;;1.60
73937;BMP180;59249;59.736;30.568;2023-12-20T06:53:30;98100.00;;;1.60
73937;BMP180;59249;59.736;30.568;2023-12-20T06:55:59;98112.00;;;1.70
73937;BMP180;59249;59.736;30.568;2023-12-20T06:58:28;98054.00;;;1.70
73937;BMP180;59249;59.736;30.568;2023-12-20T07:00:57;98110.00;;;1.70
73937;BMP180;59249;59.736;30.568;2023-12-20T07:03:27;98093.00;;;1.70
73937;BMP180;59249;59.736;30.568;2023-12-20T07:05:56;98111.00;;;1.70
73937;BMP180;59249;59.736;30.568;2023-12-20T07:08:25;98106.00;;;1.70
73937;BMP180;59249;59.736;30.568;2023-12-20T07:10:56;98120.00;;;1.70
73937;BMP180;59249;59.736;30.568;2023-12-20T07:13:25;98115.00;;;1.70
73937;BMP180;59249;59.736;30.568;2023-12-20T07:15:54;98128.00;;;1.70
73937;BMP180;59249;59.736;30.568;2023-12-20T07:18:23;98108.00;;;1.70
73937;BMP180;59249;59.736;30.568;2023-12-20T07:20:52;98039.00;;;1.70
73937;BMP180;59249;59.736;30.568;2023-12-20T07:23:22;98111.00;;;1.70
73937;BMP180;59249;59.736;30.568;2023-12-20T07:25:55;98096.00;;;1.80
73937;BMP180;59249;59.736;30.568;2023-12-20T07:28:26;98120.00;;;1.80
73937;BMP180;59249;59.736;30.568;2023-12-20T07:30:59;98105.00;;;1.80
73937;BMP180;59249;59.736;30.568;2023-12-20T07:33:54;98127.00;;;1.80
73937;BMP180;59249;59.736;30.568;2023-12-20T07:36:28;98129.00;;;1.80
73937;BMP180;59249;59.736;30.568;2023-12-20T07:39:03;98123.00;;;1.80
73937;BMP180;59249;59.736;30.568;2023-12-20T07:41:39;98074.00;;;1.80
73937;BMP180;59249;59.736;30.568;2023-12-20T07:44:12;98121.00;;;1.80
73937;BMP180;59249;59.736;30.568;2023-12-20T07:47:06;98114.00;;;1.80
73937;BMP180;59249;59.736;30.568;2023-12-20T07:49:40;98133.00;;;1.90
73937;BMP180;59249;59.736;30.568;2023-12-20T07:52:14;98093.00;;;1.80
73937;BMP180;59249;59.736;30.568;2023-12-20T07:54:50;98125.00;;;1.80
73937;BMP180;59249;59.736;30.568;2023-12-20T07:57:33;98123.00;;;1.90
73937;BMP180;59249;59.736;30.568;2023-12-20T08:00:15;98140.00;;;1.80
73937;BMP180;59249;59.736;30.568;2023-12-20T08:02:51;98139.00;;;1.80
73937;BMP180;59249;59.736;30.568;2023-12-20T08:05:23;98148.00;;;1.80
73937;BMP180;59249;59.736;30.568;2023-12-20T08:07:52;98134.00;;;1.70
73937;BMP180;59249;59.736;30.568;2023-12-20T08:10:23;98120.00;;;1.70
73937;BMP180;59249;59.736;30.568;2023-12-20T08:13:04;98160.00;;;1.70
73937;BMP180;59249;59.736;30.568;2023-12-20T08:15:51;98119.00;;;1.80
73937;BMP180;59249;59.736;30.568;2023-12-20T08:18:36;98156.00;;;1.80
73937;BMP180;59249;59.736;30.568;2023-12-20T08:21:06;98167.00;;;1.80
73937;BMP180;59249;59.736;30.568;2023-12-20T08:23:39;98170.00;;;1.80
73937;BMP180;59249;59.736;30.568;2023-12-20T08:26:19;98184.00;;;1.90
73937;BMP180;59249;59.736;30.568;2023-12-20T08:29:01;98087.00;;;2.00
73937;BMP180;59249;59.736;30.568;2023-12-20T08:31:36;98180.00;;;2.10
73937;BMP180;59249;59.736;30.568;2023-12-20T08:34:16;98183.00;;;2.00
73937;BMP180;59249;59.736;30.568;2023-12-20T08:36:54;98142.00;;;2.10
73937;BMP180;59249;59.736;30.568;2023-12-20T08:39:28;98188.00;;;2.00
73937;BMP180;59249;59.736;30.568;2023-12-20T08:42:00;98193.00;;;2.00
73937;BMP180;59249;59.736;30.568;2023-12-20T08:44:40;98203.00;;;2.20
73937;BMP180;59249;59.736;30.568;2023-12-20T08:47:11;98168.00;;;2.10
73937;BMP180;59249;59.736;30.568;2023-12-20T08:49:43;98204.00;;;2.10
73937;BMP180;59249;59.736;30.568;2023-12-20T08:52:15;98208.00;;;2.10
73937;BMP180;59249;59.736;30.568;2023-12-20T08:54:47;98195.00;;;2.10
73937;BMP180;59249;59.736;30.568;2023-12-20T08:57:21;98214.00;;;2.10
73937;BMP180;59249;59.736;30.568;2023-12-20T08:59:58;98213.00;;;2.20
73937;BMP180;59249;59.736;30.568;2023-12-20T09:02:35;98219.00;;;2.10
73937;BMP180;59249;59.736;30.568;2023-12-20T09:05:07;98205.00;;;2.30
73937;BMP180;59249;59.736;30.568;2023-12-20T09:07:36;98239.00;;;2.10
73937;BMP180;59249;59.736;30.568;2023-12-20T09:10:24;98217.00;;;2.10
73937;BMP180;59249;59.736;30.568;2023-12-20T09:12:55;98140.00;;;2.20
73937;BMP180;59249;59.736;30.568;2023-12-20T09:15:27;98231.00;;;2.10
73937;BMP180;59249;59.736;30.568;2023-12-20T09:18:06;98232.00;;;2.10
73937;BMP180;59249;59.736;30.568;2023-12-20T09:20:42;98248.00;;;2.20
73937;BMP180;59249;59.736;30.568;2023-12-20T09:23:16;98236.00;;;2.10
73937;BMP180;59249;59.736;30.568;2023-12-20T09:25:56;98240.00;;;2.10
73937;BMP180;59249;59.736;30.568;2023-12-20T09:28:28;98235.00;;;2.10
73937;BMP180;59249;59.736;30.568;2023-12-20T09:31:07;98249.00;;;2.10
73937;BMP180;59249;59.736;30.568;2023-12-20T09:33:53;98279.00;;;2.10
73937;BMP180;59249;59.736;30.568;2023-12-20T09:36:32;98266.00;;;2.00
73937;BMP180;59249;59.736;30.568;2023-12-20T09:39:09;98283.00;;;2.10
73937;BMP180;59249;59.736;30.568;2023-12-20T09:41:42;98272.00;;;2.10
73937;BMP180;59249;59.736;30.568;2023-12-20T09:44:23;98269.00;;;2.20
73937;BMP180;59249;59.736;30.568;2023-12-20T09:47:10;98231.00;;;2.10
73937;BMP180;59249;59.736;30.568;2023-12-20T09:49:52;98271.00;;;2.30
73937;BMP180;59249;59.736;30.568;2023-12-20T09:52:40;98272.00;;;2.20
73937;BMP180;59249;59.736;30.568;2023-12-20T09:55:14;98281.00;;;2.20
73937;BMP180;59249;59.736;30.568;2023-12-20T09:58:06;98305.00;;;2.20
73937;BMP180;59249;59.736;30.568;2023-12-20T10:00:49;98251.00;;;2.10
73937;BMP180;59249;59.736;30.568;2023-12-20T10:03:39;98293.00;;;2.20
73937;BMP180;59249;59.736;30.568;2023-12-20T10:06:13;98303.00;;;2.20
73937;BMP180;59249;59.736;30.568;2023-12-20T10:08:45;98290.00;;;2.10
73937;BMP180;59249;59.736;30.568;2023-12-20T10:11:14;98310.00;;;2.20
73937;BMP180;59249;59.736;30.568;2023-12-20T10:13:45;98273.00;;;2.20
73937;BMP180;59249;59.736;30.568;2023-12-20T10:16:17;98310.00;;;2.20
73937;BMP180;59249;59.736;30.568;2023-12-20T10:19:01;98315.00;;;2.20
73937;BMP180;59249;59.736;30.568;2023-12-20T10:21:36;98344.00;;;2.30
73937;BMP180;59249;59.736;30.568;2023-12-20T10:24:18;98344.00;;;2.20
73937;BMP180;59249;59.736;30.568;2023-12-20T10:27:01;98296.00;;;2.20
73937;BMP180;59249;59.736;30.568;2023-12-20T10:29:34;98330.00;;;2.20
73937;BMP180;59249;59.736;30.568;2023-12-20T10:32:33;98332.00;;;2.30
73937;BMP180;59249;59.736;30.568;2023-12-20T10:35:16;98339.00;;;2.30
73937;BMP180;59249;59.736;30.568;2023-12-20T10:38:03;98345.00;;;2.30
73937;BMP180;59249;59.736;30.568;2023-12-20T10:40:35;98321.00;;;2.30
73937;BMP180;59249;59.736;30.568;2023-12-20T10:43:10;98309.00;;;2.30
73937;BMP180;59249;59.736;30.568;2023-12-20T10:45:46;98262.00;;;2.30
73937;BMP180;59249;59.736;30.568;2023-12-20T10:48:21;98335.00;;;2.40
73937;BMP180;59249;59.736;30.568;2023-12-20T10:51:01;98370.00;;;2.30
73937;BMP180;59249;59.736;30.568;2023-12-20T10:53:38;98280.00;;;2.30
73937;BMP180;59249;59.736;30.568;2023-12-20T10:56:16;98379.00;;;2.40
73937;BMP180;59249;59.736;30.568;2023-12-20T10:59:15;98369.00;;;2.40
73937;BMP180;59249;59.736;30.568;2023-12-20T11:01:54;98380.00;;;2.30
73937;BMP180;59249;59.736;30.568;2023-12-20T11:04:33;98334.00;;;2.30
73937;BMP180;59249;59.736;30.568;2023-12-20T11:07:17;98384.00;;;2.40
73937;BMP180;59249;59.736;30.568;2023-12-20T11:09:57;98364.00;;;2.30
73937;BMP180;59249;59.736;30.568;2023-12-20T11:12:36;98371.00;;;2.30
73937;BMP180;59249;59.736;30.568;2023-12-20T11:15:11;98358.00;;;2.20
73937;BMP180;59249;59.736;30.568;2023-12-20T11:17:45;98370.00;;;2.30
73937;BMP180;59249;59.736;30.568;2023-12-20T11:20:36;98359.00;;;2.40
73937;BMP180;59249;59.736;30.568;2023-12-20T11:23:10;98383.00;;;2.30
73937;BMP180;59249;59.736;30.568;2023-12-20T11:25:53;98368.00;;;2.40
73937;BMP180;59249;59.736;30.568;2023-12-20T11:28:31;98374.00;;;2.20
73937;BMP180;59249;59.736;30.568;2023-12-20T11:31:01;98374.00;;;2.20
73937;BMP180;59249;59.736;30.568;2023-12-20T11:33:37;98368.00;;;2.20
73937;BMP180;59249;59.736;30.568;2023-12-20T11:36:15;98361.00;;;2.30
73937;BMP180;59249;59.736;30.568;2023-12-20T11:38:56;98408.00;;;2.30
73937;BMP180;59249;59.736;30.568;2023-12-20T11:41:32;98396.00;;;2.30
73937;BMP180;59249;59.736;30.568;2023-12-20T11:44:01;98390.00;;;2.30
73937;BMP180;59249;59.736;30.568;2023-12-20T11:46:36;98378.00;;;2.30
73937;BMP180;59249;59.736;30.568;2023-12-20T11:49:07;98370.00;;;2.30
73937;BMP180;59249;59.736;30.568;2023-12-20T11:51:44;98421.00;;;2.30
73937;BMP180;59249;59.736;30.568;2023-12-20T11:54:18;98431.00;;;2.30
73937;BMP180;59249;59.736;30.568;2023-12-20T11:57:05;98433.00;;;2.20
73937;BMP180;59249;59.736;30.568;2023-12-20T11:59:34;98460.00;;;2.20
73937;BMP180;59249;59.736;30.568;2023-12-20T12:02:11;98454.00;;;2.30
73937;BMP180;59249;59.736;30.568;2023-12-20T12:04:41;98436.00;;;2.30
73937;BMP180;59249;59.736;30.568;2023-12-20T12:07:11;98444.00;;;2.30
73937;BMP180;59249;59.736;30.568;2023-12-20T12:09:45;98446.00;;;2.20
73937;BMP180;59249;59.736;30.568;2023-12-20T12:12:19;98451.00;;;2.30
73937;BMP180;59249;59.736;30.568;2023-12-20T12:14:51;98478.00;;;2.30
73937;BMP180;59249;59.736;30.568;2023-12-20T12:17:23;98475.00;;;2.30
73937;BMP180;59249;59.736;30.568;2023-12-20T12:20:02;98470.00;;;2.30
73937;BMP180;59249;59.736;30.568;2023-12-20T12:22:40;98464.00;;;2.20
73937;BMP180;59249;59.736;30.568;2023-12-20T12:25:17;98481.00;;;2.20
73937;BMP180;59249;59.736;30.568;2023-12-20T12:27:53;98469.00;;;2.20
73937;BMP180;59249;59.736;30.568;2023-12-20T12:30:27;98477.00;;;2.20
73937;BMP180;59249;59.736;30.568;2023-12-20T12:33:08;98458.00;;;2.20
73937;BMP180;59249;59.736;30.568;2023-12-20T12:35:40;98485.00;;;2.20
73937;BMP180;59249;59.736;30.568;2023-12-20T12:38:20;98432.00;;;2.10
73937;BMP180;59249;59.736;30.568;2023-12-20T12:41:01;98472.00;;;2.10
73937;BMP180;59249;59.736;30.568;2023-12-20T12:43:31;98454.00;;;2.10
73937;BMP180;59249;59.736;30.568;2023-12-20T12:46:07;98481.00;;;2.00
73937;BMP180;59249;59.736;30.568;2023-12-20T12:48:39;98477.00;;;2.00
73937;BMP180;59249;59.736;30.568;2023-12-20T12:51:17;98465.00;;;1.90
73937;BMP180;59249;59.736;30.568;2023-12-20T12:53:52;98497.00;;;1.90
73937;BMP180;59249;59.736;30.568;2023-12-20T12:56:29;98510.00;;;1.80
73937;BMP180;59249;59.736;30.568;2023-12-20T12:59:03;98513.00;;;1.80
73937;BMP180;59249;59.736;30.568;2023-12-20T13:01:41;98470.00;;;1.90
73937;BMP180;59249;59.736;30.568;2023-12-20T13:04:10;98518.00;;;1.80
73937;BMP180;59249;59.736;30.568;2023-12-20T13:06:46;98515.00;;;1.80
73937;BMP180;59249;59.736;30.568;2023-12-20T13:09:17;98530.00;;;1.80
73937;BMP180;59249;59.736;30.568;2023-12-20T13:11:49;98550.00;;;1.80
73937;BMP180;59249;59.736;30.568;2023-12-20T13:14:20;98554.00;;;1.60
73937;BMP180;59249;59.736;30.568;2023-12-20T13:16:52;98556.00;;;1.60
73937;BMP180;59249;59.736;30.568;2023-12-20T13:19:28;98557.00;;;1.50
73937;BMP180;59249;59.736;30.568;2023-12-20T13:22:01;98546.00;;;1.40
73937;BMP180;59249;59.736;30.568;2023-12-20T13:24:30;98521.00;;;1.50
73937;BMP180;59249;59.736;30.568;2023-12-20T13:27:20;98553.00;;;1.30
73937;BMP180;59249;59.736;30.568;2023-12-20T13:29:52;98555.00;;;1.20
73937;BMP180;59249;59.736;30.568;2023-12-20T13:32:21;98556.00;;;1.30
73937;BMP180;59249;59.736;30.568;2023-12-20T13:34:52;98569.00;;;1.20
73937;BMP180;59249;59.736;30.568;2023-12-20T13:37:21;98572.00;;;1.20
73937;BMP180;59249;59.736;30.568;2023-12-20T13:39:50;98576.00;;;1.10
73937;BMP180;59249;59.736;30.568;2023-12-20T13:42:21;98569.00;;;1.10
73937;BMP180;59249;59.736;30.568;2023-12-20T13:44:51;98552.00;;;1.10
73937;BMP180;59249;59.736;30.568;2023-12-20T13:47:21;98573.00;;;1.10
73937;BMP180;59249;59.736;30.568;2023-12-20T13:49:51;98592.00;;;1.00
73937;BMP180;59249;59.736;30.568;2023-12-20T13:52:24;98594.00;;;1.00
73937;BMP180;59249;59.736;30.568;2023-12-20T13:55:09;98580.00;;;0.90
73937;BMP180;59249;59.736;30.568;2023-12-20T13:57:43;98589.00;;;1.00
73937;BMP180;59249;59.736;30.568;2023-12-20T14:00:23;98575.00;;;0.90
73937;BMP180;59249;59.736;30.568;2023-12-20T14:02:56;98573.00;;;0.90
73937;BMP180;59249;59.736;30.568;2023-12-20T14:05:32;98587.00;;;0.90
73937;BMP180;59249;59.736;30.568;2023-12-20T14:08:18;98570.00;;;0.90
73937;BMP180;59249;59.736;30.568;2023-12-20T14:10:47;98581.00;;;0.80
73937;BMP180;59249;59.736;30.568;2023-12-20T14:13:17;98591.00;;;0.80
73937;BMP180;59249;59.736;30.568;2023-12-20T14:15:48;98593.00;;;0.70
73937;BMP180;59249;59.736;30.568;2023-12-20T14:18:23;98593.00;;;0.70
73937;BMP180;59249;59.736;30.568;2023-12-20T14:20:54;98604.00;;;0.60
73937;BMP180;59249;59.736;30.568;2023-12-20T14:23:24;98589.00;;;0.60
73937;BMP180;59249;59.736;30.568;2023-12-20T14:25:53;98599.00;;;0.60
73937;BMP180;59249;59.736;30.568;2023-12-20T14:28:28;98601.00;;;0.50
73937;BMP180;59249;59.736;30.568;2023-12-20T14:31:03;98601.00;;;0.50
73937;BMP180;59249;59.736;30.568;2023-12-20T14:33:38;98601.00;;;0.50
73937;BMP180;59249;59.736;30.568;2023-12-20T14:36:13;98607.00;;;0.50
73937;BMP180;59249;59.736;30.568;2023-12-20T14:38:46;98618.00;;;0.40
73937;BMP180;59249;59.736;30.568;2023-12-20T14:41:17;98629.00;;;0.40